Algoma, Wisconsin
Current Conditions -  °F | °C
As of 2:35 AM on Saturday 22 Nov 2014 (Local Time) from KSUE Reporting Station
Overcast Overcast  
Wind Chill: 24°   Ceiling: 1900
Heat Index: 34°   Visibility: 10mi
Dew Point: 21°   Wind: 15mph
Humidity: 60%   Direction: 220°SW
Pressure: 29.94"   Gusts: 26mph
Location:  44.61°N, 87.43°W
Report Text: KSUE 220835Z AUTO 22013G23KT 10SM OVC019 01/M06 A2994 RMK AO1
Loading
Personal Weather Stations






























Interactive Weather Map New forecast layout! Learn more

10-Day Weather Forecast

Advertisements
Track Severe Weather on mobile